sensor_id;sensor_type;location;lat;lon;timestamp;temperature;humidity
53053;DHT22;38934;52.690;6.184;2022-10-31T00:00:46;11.40;99.90
53053;DHT22;38934;52.690;6.184;2022-10-31T00:03:11;11.40;99.90
53053;DHT22;38934;52.690;6.184;2022-10-31T00:05:40;11.40;99.90
53053;DHT22;38934;52.690;6.184;2022-10-31T00:08:06;11.40;99.90
53053;DHT22;38934;52.690;6.184;2022-10-31T00:10:31;11.30;99.90
53053;DHT22;38934;52.690;6.184;2022-10-31T00:12:56;11.30;99.90
53053;DHT22;38934;52.690;6.184;2022-10-31T00:15:22;11.30;99.90
53053;DHT22;38934;52.690;6.184;2022-10-31T00:17:47;11.20;99.90
53053;DHT22;38934;52.690;6.184;2022-10-31T00:20:13;11.10;99.90
53053;DHT22;38934;52.690;6.184;2022-10-31T00:22:38;11.20;99.90
53053;DHT22;38934;52.690;6.184;2022-10-31T00:25:04;11.10;99.90
53053;DHT22;38934;52.690;6.184;2022-10-31T00:27:29;11.10;99.90
53053;DHT22;38934;52.690;6.184;2022-10-31T00:29:55;11.10;99.90
53053;DHT22;38934;52.690;6.184;2022-10-31T00:32:20;11.10;99.90
53053;DHT22;38934;52.690;6.184;2022-10-31T00:34:46;11.10;99.90
53053;DHT22;38934;52.690;6.184;2022-10-31T00:37:11;11.10;99.90
53053;DHT22;38934;52.690;6.184;2022-10-31T00:39:37;11.10;99.90
53053;DHT22;38934;52.690;6.184;2022-10-31T00:42:02;11.30;99.90
53053;DHT22;38934;52.690;6.184;2022-10-31T00:44:28;11.10;99.90
53053;DHT22;38934;52.690;6.184;2022-10-31T00:46:53;11.00;99.90
53053;DHT22;38934;52.690;6.184;2022-10-31T00:49:18;11.00;99.90
53053;DHT22;38934;52.690;6.184;2022-10-31T00:51:44;11.00;99.90
53053;DHT22;38934;52.690;6.184;2022-10-31T00:54:09;11.00;99.90
53053;DHT22;38934;52.690;6.184;2022-10-31T00:56:35;11.00;99.90
53053;DHT22;38934;52.690;6.184;2022-10-31T00:59:00;11.00;99.90
53053;DHT22;38934;52.690;6.184;2022-10-31T01:01:26;11.20;99.90
53053;DHT22;38934;52.690;6.184;2022-10-31T01:03:51;11.00;99.90
53053;DHT22;38934;52.690;6.184;2022-10-31T01:06:17;10.90;99.90
53053;DHT22;38934;52.690;6.184;2022-10-31T01:08:42;11.00;99.90
53053;DHT22;38934;52.690;6.184;2022-10-31T01:11:17;10.90;99.90
53053;DHT22;38934;52.690;6.184;2022-10-31T01:13:43;11.00;99.90
53053;DHT22;38934;52.690;6.184;2022-10-31T01:16:14;11.00;99.90
53053;DHT22;38934;52.690;6.184;2022-10-31T01:18:40;11.00;99.90
53053;DHT22;38934;52.690;6.184;2022-10-31T01:21:12;11.00;99.90
53053;DHT22;38934;52.690;6.184;2022-10-31T01:23:38;11.00;99.90
53053;DHT22;38934;52.690;6.184;2022-10-31T01:26:11;11.00;99.90
53053;DHT22;38934;52.690;6.184;2022-10-31T01:28:37;11.00;99.90
53053;DHT22;38934;52.690;6.184;2022-10-31T01:31:07;11.00;99.90
53053;DHT22;38934;52.690;6.184;2022-10-31T01:33:33;10.90;99.90
53053;DHT22;38934;52.690;6.184;2022-10-31T01:35:58;10.90;99.90
53053;DHT22;38934;52.690;6.184;2022-10-31T01:38:24;10.90;99.90
53053;DHT22;38934;52.690;6.184;2022-10-31T01:40:50;10.90;99.90
53053;DHT22;38934;52.690;6.184;2022-10-31T01:43:16;10.80;99.90
53053;DHT22;38934;52.690;6.184;2022-10-31T01:45:41;11.30;99.90
53053;DHT22;38934;52.690;6.184;2022-10-31T01:48:11;10.70;99.90
53053;DHT22;38934;52.690;6.184;2022-10-31T01:50:37;10.60;99.90
53053;DHT22;38934;52.690;6.184;2022-10-31T01:53:04;10.60;99.90
53053;DHT22;38934;52.690;6.184;2022-10-31T01:55:33;10.60;99.90
53053;DHT22;38934;52.690;6.184;2022-10-31T01:58:02;10.60;99.90
53053;DHT22;38934;52.690;6.184;2022-10-31T02:00:29;10.60;99.90
53053;DHT22;38934;52.690;6.184;2022-10-31T02:02:54;10.70;99.90
53053;DHT22;38934;52.690;6.184;2022-10-31T02:05:22;10.50;99.90
53053;DHT22;38934;52.690;6.184;2022-10-31T02:10:13;10.60;99.90
53053;DHT22;38934;52.690;6.184;2022-10-31T02:12:39;10.50;99.90
53053;DHT22;38934;52.690;6.184;2022-10-31T02:15:07;10.50;99.90
53053;DHT22;38934;52.690;6.184;2022-10-31T02:17:33;10.50;99.90
53053;DHT22;38934;52.690;6.184;2022-10-31T02:20:09;10.50;99.90
53053;DHT22;38934;52.690;6.184;2022-10-31T02:28:06;10.40;99.90
53053;DHT22;38934;52.690;6.184;2022-10-31T02:30:41;10.50;99.90
53053;DHT22;38934;52.690;6.184;2022-10-31T02:38:19;10.50;99.90
53053;DHT22;38934;52.690;6.184;2022-10-31T02:40:51;10.40;99.90
53053;DHT22;38934;52.690;6.184;2022-10-31T02:43:26;10.40;99.90
53053;DHT22;38934;52.690;6.184;2022-10-31T02:46:01;10.30;99.90
53053;DHT22;38934;52.690;6.184;2022-10-31T02:48:28;10.30;99.90
53053;DHT22;38934;52.690;6.184;2022-10-31T02:50:55;10.20;99.90
53053;DHT22;38934;52.690;6.184;2022-10-31T02:53:22;10.20;99.90
53053;DHT22;38934;52.690;6.184;2022-10-31T02:55:58;10.20;99.90
53053;DHT22;38934;52.690;6.184;2022-10-31T02:58:24;10.20;99.90
53053;DHT22;38934;52.690;6.184;2022-10-31T03:00:56;10.10;99.90
53053;DHT22;38934;52.690;6.184;2022-10-31T03:03:27;10.10;99.90
53053;DHT22;38934;52.690;6.184;2022-10-31T03:08:35;10.00;99.90
53053;DHT22;38934;52.690;6.184;2022-10-31T03:11:02;10.00;99.90
53053;DHT22;38934;52.690;6.184;2022-10-31T03:13:35;10.00;99.90
53053;DHT22;38934;52.690;6.184;2022-10-31T03:16:10;10.00;99.90
53053;DHT22;38934;52.690;6.184;2022-10-31T03:18:39;10.00;99.90
53053;DHT22;38934;52.690;6.184;2022-10-31T03:21:07;10.00;99.90
53053;DHT22;38934;52.690;6.184;2022-10-31T03:23:35;9.90;99.90
53053;DHT22;38934;52.690;6.184;2022-10-31T03:26:01;9.90;99.90
53053;DHT22;38934;52.690;6.184;2022-10-31T03:28:30;9.90;99.90
53053;DHT22;38934;52.690;6.184;2022-10-31T03:30:57;9.80;99.90
53053;DHT22;38934;52.690;6.184;2022-10-31T03:33:24;9.80;99.90
53053;DHT22;38934;52.690;6.184;2022-10-31T03:35:51;9.80;99.90
53053;DHT22;38934;52.690;6.184;2022-10-31T03:38:17;9.80;99.90
53053;DHT22;38934;52.690;6.184;2022-10-31T03:40:43;9.80;99.90
53053;DHT22;38934;52.690;6.184;2022-10-31T03:43:12;9.80;99.90
53053;DHT22;38934;52.690;6.184;2022-10-31T03:45:43;9.70;99.90
53053;DHT22;38934;52.690;6.184;2022-10-31T03:48:10;10.00;99.90
53053;DHT22;38934;52.690;6.184;2022-10-31T03:50:57;9.70;99.90
53053;DHT22;38934;52.690;6.184;2022-10-31T03:53:32;9.70;99.90
53053;DHT22;38934;52.690;6.184;2022-10-31T03:56:12;9.70;99.90
53053;DHT22;38934;52.690;6.184;2022-10-31T03:58:39;9.60;99.90
53053;DHT22;38934;52.690;6.184;2022-10-31T04:01:08;9.60;99.90
53053;DHT22;38934;52.690;6.184;2022-10-31T04:03:35;9.60;99.90
53053;DHT22;38934;52.690;6.184;2022-10-31T04:06:08;9.60;99.90
53053;DHT22;38934;52.690;6.184;2022-10-31T04:08:37;9.60;99.90
53053;DHT22;38934;52.690;6.184;2022-10-31T04:11:04;9.60;99.90
53053;DHT22;38934;52.690;6.184;2022-10-31T04:13:31;9.60;99.90
53053;DHT22;38934;52.690;6.184;2022-10-31T04:15:57;9.60;99.90
53053;DHT22;38934;52.690;6.184;2022-10-31T04:18:23;9.50;99.90
53053;DHT22;38934;52.690;6.184;2022-10-31T04:20:49;9.50;99.90
53053;DHT22;38934;52.690;6.184;2022-10-31T04:23:25;9.50;99.90
53053;DHT22;38934;52.690;6.184;2022-10-31T04:25:51;9.50;99.90
53053;DHT22;38934;52.690;6.184;2022-10-31T04:28:17;9.50;99.90
53053;DHT22;38934;52.690;6.184;2022-10-31T04:30:42;9.40;99.90
53053;DHT22;38934;52.690;6.184;2022-10-31T04:33:08;9.40;99.90
53053;DHT22;38934;52.690;6.184;2022-10-31T04:35:33;9.40;99.90
53053;DHT22;38934;52.690;6.184;2022-10-31T04:37:59;9.40;99.90
53053;DHT22;38934;52.690;6.184;2022-10-31T04:40:24;9.30;99.90
53053;DHT22;38934;52.690;6.184;2022-10-31T04:42:50;9.40;99.90
53053;DHT22;38934;52.690;6.184;2022-10-31T04:45:15;9.30;99.90
53053;DHT22;38934;52.690;6.184;2022-10-31T04:47:41;9.30;99.90
53053;DHT22;38934;52.690;6.184;2022-10-31T04:50:06;9.30;99.90
53053;DHT22;38934;52.690;6.184;2022-10-31T04:52:32;9.30;99.90
53053;DHT22;38934;52.690;6.184;2022-10-31T04:54:57;9.30;99.90
53053;DHT22;38934;52.690;6.184;2022-10-31T04:57:23;10.10;99.90
53053;DHT22;38934;52.690;6.184;2022-10-31T04:59:48;9.70;99.90
53053;DHT22;38934;52.690;6.184;2022-10-31T05:02:14;9.20;99.90
53053;DHT22;38934;52.690;6.184;2022-10-31T05:04:39;9.20;99.90
53053;DHT22;38934;52.690;6.184;2022-10-31T05:07:05;9.20;99.90
53053;DHT22;38934;52.690;6.184;2022-10-31T05:09:31;9.20;99.90
53053;DHT22;38934;52.690;6.184;2022-10-31T05:11:56;9.20;99.90
53053;DHT22;38934;52.690;6.184;2022-10-31T05:14:22;9.20;99.90
53053;DHT22;38934;52.690;6.184;2022-10-31T05:16:47;9.10;99.90
53053;DHT22;38934;52.690;6.184;2022-10-31T05:19:13;9.10;99.90
53053;DHT22;38934;52.690;6.184;2022-10-31T05:21:38;9.10;99.90
53053;DHT22;38934;52.690;6.184;2022-10-31T05:24:04;9.10;99.90
53053;DHT22;38934;52.690;6.184;2022-10-31T05:26:29;9.10;99.90
53053;DHT22;38934;52.690;6.184;2022-10-31T05:28:55;9.10;99.90
53053;DHT22;38934;52.690;6.184;2022-10-31T05:31:20;9.10;99.90
53053;DHT22;38934;52.690;6.184;2022-10-31T05:33:46;10.00;99.90
53053;DHT22;38934;52.690;6.184;2022-10-31T05:36:11;9.10;99.90
53053;DHT22;38934;52.690;6.184;2022-10-31T05:38:37;9.00;99.90
53053;DHT22;38934;52.690;6.184;2022-10-31T05:41:02;9.00;99.90
53053;DHT22;38934;52.690;6.184;2022-10-31T05:43:28;9.00;99.90
53053;DHT22;38934;52.690;6.184;2022-10-31T05:45:54;9.00;99.90
53053;DHT22;38934;52.690;6.184;2022-10-31T05:48:20;9.00;99.90
53053;DHT22;38934;52.690;6.184;2022-10-31T05:50:46;9.80;99.90
53053;DHT22;38934;52.690;6.184;2022-10-31T05:53:12;9.00;99.90
53053;DHT22;38934;52.690;6.184;2022-10-31T05:55:37;9.00;99.90
53053;DHT22;38934;52.690;6.184;2022-10-31T05:58:03;9.00;99.90
53053;DHT22;38934;52.690;6.184;2022-10-31T06:00:29;8.90;99.90
53053;DHT22;38934;52.690;6.184;2022-10-31T06:02:58;8.90;99.90
53053;DHT22;38934;52.690;6.184;2022-10-31T06:05:24;8.90;99.90
53053;DHT22;38934;52.690;6.184;2022-10-31T06:07:49;8.80;99.90
53053;DHT22;38934;52.690;6.184;2022-10-31T06:10:15;8.90;99.90
53053;DHT22;38934;52.690;6.184;2022-10-31T06:12:41;8.80;99.90
53053;DHT22;38934;52.690;6.184;2022-10-31T06:15:06;8.80;99.90
53053;DHT22;38934;52.690;6.184;2022-10-31T06:17:35;8.80;99.90
53053;DHT22;38934;52.690;6.184;2022-10-31T06:20:01;8.90;99.90
53053;DHT22;38934;52.690;6.184;2022-10-31T06:22:27;8.80;99.90
53053;DHT22;38934;52.690;6.184;2022-10-31T06:24:53;8.80;99.90
53053;DHT22;38934;52.690;6.184;2022-10-31T06:27:19;8.80;99.90
53053;DHT22;38934;52.690;6.184;2022-10-31T06:29:45;8.80;99.90
53053;DHT22;38934;52.690;6.184;2022-10-31T06:32:11;8.80;99.90
53053;DHT22;38934;52.690;6.184;2022-10-31T06:34:37;8.80;99.90
53053;DHT22;38934;52.690;6.184;2022-10-31T06:37:02;8.80;99.90
53053;DHT22;38934;52.690;6.184;2022-10-31T06:39:28;8.80;99.90
53053;DHT22;38934;52.690;6.184;2022-10-31T06:41:53;8.80;99.90
53053;DHT22;38934;52.690;6.184;2022-10-31T06:44:19;8.80;99.90
53053;DHT22;38934;52.690;6.184;2022-10-31T06:46:46;8.80;99.90
53053;DHT22;38934;52.690;6.184;2022-10-31T06:49:11;8.80;99.90
53053;DHT22;38934;52.690;6.184;2022-10-31T06:51:37;8.80;99.90
53053;DHT22;38934;52.690;6.184;2022-10-31T06:54:02;8.80;99.90
53053;DHT22;38934;52.690;6.184;2022-10-31T06:56:28;8.80;99.90
53053;DHT22;38934;52.690;6.184;2022-10-31T06:58:53;8.80;99.90
53053;DHT22;38934;52.690;6.184;2022-10-31T07:01:19;8.80;99.90
53053;DHT22;38934;52.690;6.184;2022-10-31T07:03:44;8.90;99.90
53053;DHT22;38934;52.690;6.184;2022-10-31T07:06:10;8.80;99.90
53053;DHT22;38934;52.690;6.184;2022-10-31T07:08:35;8.90;99.90
53053;DHT22;38934;52.690;6.184;2022-10-31T07:11:00;8.90;99.90
53053;DHT22;38934;52.690;6.184;2022-10-31T07:13:26;9.00;99.90
53053;DHT22;38934;52.690;6.184;2022-10-31T07:15:53;9.00;99.90
53053;DHT22;38934;52.690;6.184;2022-10-31T07:18:19;9.00;99.90
53053;DHT22;38934;52.690;6.184;2022-10-31T07:20:44;9.10;99.90
53053;DHT22;38934;52.690;6.184;2022-10-31T07:23:11;9.20;99.90
53053;DHT22;38934;52.690;6.184;2022-10-31T07:25:37;9.20;99.90
53053;DHT22;38934;52.690;6.184;2022-10-31T07:28:03;9.20;99.90
53053;DHT22;38934;52.690;6.184;2022-10-31T07:30:29;9.30;99.90
53053;DHT22;38934;52.690;6.184;2022-10-31T07:32:54;9.30;99.90
53053;DHT22;38934;52.690;6.184;2022-10-31T07:35:21;9.30;99.90
53053;DHT22;38934;52.690;6.184;2022-10-31T07:37:48;9.40;99.90
53053;DHT22;38934;52.690;6.184;2022-10-31T07:40:13;9.40;99.90
53053;DHT22;38934;52.690;6.184;2022-10-31T07:42:40;9.40;99.90
53053;DHT22;38934;52.690;6.184;2022-10-31T07:45:07;10.30;99.90
53053;DHT22;38934;52.690;6.184;2022-10-31T07:47:45;9.40;99.90
53053;DHT22;38934;52.690;6.184;2022-10-31T07:50:11;9.40;99.90
53053;DHT22;38934;52.690;6.184;2022-10-31T07:52:37;9.50;99.90
53053;DHT22;38934;52.690;6.184;2022-10-31T07:55:03;9.50;99.90
53053;DHT22;38934;52.690;6.184;2022-10-31T07:57:29;9.50;99.90
53053;DHT22;38934;52.690;6.184;2022-10-31T07:59:54;9.50;99.90
53053;DHT22;38934;52.690;6.184;2022-10-31T08:02:20;9.60;99.90
53053;DHT22;38934;52.690;6.184;2022-10-31T08:04:45;9.70;99.90
53053;DHT22;38934;52.690;6.184;2022-10-31T08:07:11;9.90;99.90
53053;DHT22;38934;52.690;6.184;2022-10-31T08:09:36;9.70;99.90
53053;DHT22;38934;52.690;6.184;2022-10-31T08:12:02;9.80;99.90
53053;DHT22;38934;52.690;6.184;2022-10-31T08:14:27;9.80;99.90
53053;DHT22;38934;52.690;6.184;2022-10-31T08:16:53;9.90;99.90
53053;DHT22;38934;52.690;6.184;2022-10-31T08:19:19;10.00;99.90
53053;DHT22;38934;52.690;6.184;2022-10-31T08:21:45;10.50;99.90
53053;DHT22;38934;52.690;6.184;2022-10-31T08:24:10;10.00;99.90
53053;DHT22;38934;52.690;6.184;2022-10-31T08:26:36;10.10;99.90
53053;DHT22;38934;52.690;6.184;2022-10-31T08:29:02;10.20;99.90
53053;DHT22;38934;52.690;6.184;2022-10-31T08:31:27;10.30;99.90
53053;DHT22;38934;52.690;6.184;2022-10-31T08:33:53;10.30;99.90
53053;DHT22;38934;52.690;6.184;2022-10-31T08:36:21;10.30;99.90
53053;DHT22;38934;52.690;6.184;2022-10-31T08:38:47;10.40;99.90
53053;DHT22;38934;52.690;6.184;2022-10-31T08:41:13;10.40;99.90
53053;DHT22;38934;52.690;6.184;2022-10-31T08:43:39;10.50;99.90
53053;DHT22;38934;52.690;6.184;2022-10-31T08:46:04;10.60;99.90
53053;DHT22;38934;52.690;6.184;2022-10-31T08:48:30;10.60;99.90
53053;DHT22;38934;52.690;6.184;2022-10-31T08:50:57;10.60;99.90
53053;DHT22;38934;52.690;6.184;2022-10-31T08:53:23;11.10;99.90
53053;DHT22;38934;52.690;6.184;2022-10-31T08:55:49;10.70;99.90
53053;DHT22;38934;52.690;6.184;2022-10-31T08:58:17;10.80;99.90
53053;DHT22;38934;52.690;6.184;2022-10-31T09:00:43;11.50;99.90
53053;DHT22;38934;52.690;6.184;2022-10-31T09:03:11;10.90;99.90
53053;DHT22;38934;52.690;6.184;2022-10-31T09:05:36;10.90;99.90
53053;DHT22;38934;52.690;6.184;2022-10-31T09:08:03;11.00;99.90
53053;DHT22;38934;52.690;6.184;2022-10-31T09:10:29;11.10;99.90
53053;DHT22;38934;52.690;6.184;2022-10-31T09:12:58;11.50;99.90
53053;DHT22;38934;52.690;6.184;2022-10-31T09:15:24;11.30;99.90
53053;DHT22;38934;52.690;6.184;2022-10-31T09:17:50;11.30;99.90
53053;DHT22;38934;52.690;6.184;2022-10-31T09:20:16;11.40;99.90
53053;DHT22;38934;52.690;6.184;2022-10-31T09:22:41;11.50;99.90
53053;DHT22;38934;52.690;6.184;2022-10-31T09:25:07;11.60;99.90
53053;DHT22;38934;52.690;6.184;2022-10-31T09:27:32;11.70;99.90
53053;DHT22;38934;52.690;6.184;2022-10-31T09:29:58;12.10;99.90
53053;DHT22;38934;52.690;6.184;2022-10-31T09:32:23;11.90;99.90
53053;DHT22;38934;52.690;6.184;2022-10-31T09:34:49;12.00;99.90
53053;DHT22;38934;52.690;6.184;2022-10-31T09:37:14;12.10;99.90
53053;DHT22;38934;52.690;6.184;2022-10-31T09:39:40;12.10;99.90
53053;DHT22;38934;52.690;6.184;2022-10-31T09:42:18;12.20;99.90
53053;DHT22;38934;52.690;6.184;2022-10-31T09:52:58;12.20;99.90
53053;DHT22;38934;52.690;6.184;2022-10-31T09:55:30;13.00;99.90
53053;DHT22;38934;52.690;6.184;2022-10-31T09:57:56;12.20;99.90
53053;DHT22;38934;52.690;6.184;2022-10-31T10:00:24;12.20;99.90
53053;DHT22;38934;52.690;6.184;2022-10-31T10:02:51;12.60;99.90
53053;DHT22;38934;52.690;6.184;2022-10-31T10:05:20;12.60;99.90
53053;DHT22;38934;52.690;6.184;2022-10-31T10:10:13;12.40;99.90
53053;DHT22;38934;52.690;6.184;2022-10-31T10:12:53;12.50;99.90
53053;DHT22;38934;52.690;6.184;2022-10-31T10:20:21;12.90;99.90
53053;DHT22;38934;52.690;6.184;2022-10-31T10:22:57;13.10;99.90
53053;DHT22;38934;52.690;6.184;2022-10-31T10:25:31;13.20;99.90
53053;DHT22;38934;52.690;6.184;2022-10-31T10:28:03;13.40;99.90
53053;DHT22;38934;52.690;6.184;2022-10-31T10:30:32;13.50;99.90
53053;DHT22;38934;52.690;6.184;2022-10-31T10:33:00;13.60;99.90
53053;DHT22;38934;52.690;6.184;2022-10-31T10:35:27;13.70;99.90
53053;DHT22;38934;52.690;6.184;2022-10-31T10:38:02;14.20;99.90
53053;DHT22;38934;52.690;6.184;2022-10-31T10:40:29;13.90;99.90
53053;DHT22;38934;52.690;6.184;2022-10-31T10:46:04;14.20;99.90
53053;DHT22;38934;52.690;6.184;2022-10-31T10:51:20;14.60;99.90
53053;DHT22;38934;52.690;6.184;2022-10-31T10:53:50;14.40;99.90
53053;DHT22;38934;52.690;6.184;2022-10-31T10:58:58;14.40;99.90
53053;DHT22;38934;52.690;6.184;2022-10-31T11:01:23;14.50;99.90
53053;DHT22;38934;52.690;6.184;2022-10-31T11:03:49;14.60;99.90
53053;DHT22;38934;52.690;6.184;2022-10-31T11:06:16;14.60;99.90
53053;DHT22;38934;52.690;6.184;2022-10-31T11:08:42;14.60;99.90
53053;DHT22;38934;52.690;6.184;2022-10-31T11:13:39;14.70;99.90
53053;DHT22;38934;52.690;6.184;2022-10-31T11:16:07;14.70;99.90
53053;DHT22;38934;52.690;6.184;2022-10-31T11:18:41;14.70;99.90
53053;DHT22;38934;52.690;6.184;2022-10-31T11:21:19;14.80;99.90
53053;DHT22;38934;52.690;6.184;2022-10-31T11:23:45;14.80;99.90
53053;DHT22;38934;52.690;6.184;2022-10-31T11:26:18;14.80;99.90
53053;DHT22;38934;52.690;6.184;2022-10-31T11:28:55;14.80;99.90
53053;DHT22;38934;52.690;6.184;2022-10-31T11:31:20;14.80;99.90
53053;DHT22;38934;52.690;6.184;2022-10-31T11:33:47;14.80;99.90
53053;DHT22;38934;52.690;6.184;2022-10-31T11:36:27;14.90;99.90
53053;DHT22;38934;52.690;6.184;2022-10-31T11:38:52;14.90;99.90
53053;DHT22;38934;52.690;6.184;2022-10-31T11:41:28;14.90;99.90
53053;DHT22;38934;52.690;6.184;2022-10-31T11:46:25;15.00;99.90
53053;DHT22;38934;52.690;6.184;2022-10-31T11:48:54;15.00;99.90
53053;DHT22;38934;52.690;6.184;2022-10-31T11:51:23;15.00;99.90
53053;DHT22;38934;52.690;6.184;2022-10-31T11:53:51;15.00;99.90
53053;DHT22;38934;52.690;6.184;2022-10-31T11:56:17;15.10;99.90
53053;DHT22;38934;52.690;6.184;2022-10-31T11:58:43;15.10;99.90
53053;DHT22;38934;52.690;6.184;2022-10-31T12:01:22;15.20;99.90
53053;DHT22;38934;52.690;6.184;2022-10-31T12:04:08;15.20;99.90
53053;DHT22;38934;52.690;6.184;2022-10-31T12:06:35;15.30;99.90
53053;DHT22;38934;52.690;6.184;2022-10-31T12:09:02;15.30;99.90
53053;DHT22;38934;52.690;6.184;2022-10-31T12:19:41;15.40;99.90
53053;DHT22;38934;52.690;6.184;2022-10-31T12:22:18;15.40;99.90
53053;DHT22;38934;52.690;6.184;2022-10-31T12:24:49;15.50;99.90
53053;DHT22;38934;52.690;6.184;2022-10-31T12:27:20;15.50;99.90
53053;DHT22;38934;52.690;6.184;2022-10-31T12:29:55;15.50;99.90
53053;DHT22;38934;52.690;6.184;2022-10-31T12:32:28;15.50;99.90
53053;DHT22;38934;52.690;6.184;2022-10-31T12:37:27;16.20;99.90
53053;DHT22;38934;52.690;6.184;2022-10-31T12:40:02;15.60;99.90
53053;DHT22;38934;52.690;6.184;2022-10-31T12:52:40;15.80;99.90
53053;DHT22;38934;52.690;6.184;2022-10-31T12:57:36;15.80;99.90
53053;DHT22;38934;52.690;6.184;2022-10-31T13:00:14;16.00;99.90
53053;DHT22;38934;52.690;6.184;2022-10-31T13:05:30;15.90;99.90
53053;DHT22;38934;52.690;6.184;2022-10-31T13:08:03;15.90;99.90
53053;DHT22;38934;52.690;6.184;2022-10-31T13:10:42;15.80;99.90
53053;DHT22;38934;52.690;6.184;2022-10-31T13:13:13;15.90;99.90
53053;DHT22;38934;52.690;6.184;2022-10-31T13:16:01;15.90;99.90
53053;DHT22;38934;52.690;6.184;2022-10-31T13:18:27;15.80;99.90
53053;DHT22;38934;52.690;6.184;2022-10-31T13:20:54;15.80;99.90
53053;DHT22;38934;52.690;6.184;2022-10-31T13:23:26;15.70;99.90
53053;DHT22;38934;52.690;6.184;2022-10-31T13:25:53;15.70;99.90
53053;DHT22;38934;52.690;6.184;2022-10-31T13:29:24;16.10;99.90
53053;DHT22;38934;52.690;6.184;2022-10-31T13:31:14;15.60;99.90
53053;DHT22;38934;52.690;6.184;2022-10-31T13:33:46;15.60;99.90
53053;DHT22;38934;52.690;6.184;2022-10-31T13:41:17;15.60;99.90
53053;DHT22;38934;52.690;6.184;2022-10-31T13:43:58;15.60;99.90
53053;DHT22;38934;52.690;6.184;2022-10-31T13:46:25;15.60;99.90
53053;DHT22;38934;52.690;6.184;2022-10-31T13:48:51;15.60;99.90
53053;DHT22;38934;52.690;6.184;2022-10-31T13:51:24;15.60;99.90
53053;DHT22;38934;52.690;6.184;2022-10-31T13:56:20;15.60;99.90
53053;DHT22;38934;52.690;6.184;2022-10-31T13:58:56;15.60;99.90
53053;DHT22;38934;52.690;6.184;2022-10-31T14:01:22;15.60;99.90
53053;DHT22;38934;52.690;6.184;2022-10-31T14:09:18;15.60;99.90
53053;DHT22;38934;52.690;6.184;2022-10-31T14:11:45;15.60;99.90
53053;DHT22;38934;52.690;6.184;2022-10-31T14:14:11;15.60;99.90
53053;DHT22;38934;52.690;6.184;2022-10-31T14:16:37;15.60;99.90
53053;DHT22;38934;52.690;6.184;2022-10-31T14:19:07;15.60;99.90
53053;DHT22;38934;52.690;6.184;2022-10-31T14:21:38;15.50;99.90
53053;DHT22;38934;52.690;6.184;2022-10-31T14:24:50;15.50;99.90
53053;DHT22;38934;52.690;6.184;2022-10-31T14:26:54;15.50;99.90
53053;DHT22;38934;52.690;6.184;2022-10-31T14:29:22;15.40;99.90
53053;DHT22;38934;52.690;6.184;2022-10-31T14:31:52;15.40;99.90
53053;DHT22;38934;52.690;6.184;2022-10-31T14:36:54;15.30;99.90
53053;DHT22;38934;52.690;6.184;2022-10-31T14:42:09;15.30;99.90
53053;DHT22;38934;52.690;6.184;2022-10-31T14:44:54;15.20;99.90
53053;DHT22;38934;52.690;6.184;2022-10-31T14:52:53;15.20;99.90
53053;DHT22;38934;52.690;6.184;2022-10-31T14:55:20;15.20;99.90
53053;DHT22;38934;52.690;6.184;2022-10-31T14:57:50;15.10;99.90
53053;DHT22;38934;52.690;6.184;2022-10-31T15:00:18;15.20;99.90
53053;DHT22;38934;52.690;6.184;2022-10-31T15:02:59;15.10;99.90
53053;DHT22;38934;52.690;6.184;2022-10-31T15:05:28;15.10;99.90
53053;DHT22;38934;52.690;6.184;2022-10-31T15:07:57;15.10;99.90
53053;DHT22;38934;52.690;6.184;2022-10-31T15:10:24;15.10;99.90
53053;DHT22;38934;52.690;6.184;2022-10-31T15:12:50;15.10;99.90
53053;DHT22;38934;52.690;6.184;2022-10-31T15:15:23;15.10;99.90
53053;DHT22;38934;52.690;6.184;2022-10-31T15:17:51;15.00;99.90
53053;DHT22;38934;52.690;6.184;2022-10-31T15:20:21;15.00;99.90
53053;DHT22;38934;52.690;6.184;2022-10-31T15:22:48;14.90;99.90
53053;DHT22;38934;52.690;6.184;2022-10-31T15:25:17;15.10;99.90
53053;DHT22;38934;52.690;6.184;2022-10-31T15:27:43;14.80;99.90
53053;DHT22;38934;52.690;6.184;2022-10-31T15:30:28;14.70;99.90
53053;DHT22;38934;52.690;6.184;2022-10-31T15:32:54;14.60;99.90
53053;DHT22;38934;52.690;6.184;2022-10-31T15:35:27;14.50;99.90
53053;DHT22;38934;52.690;6.184;2022-10-31T15:37:52;14.50;99.90
53053;DHT22;38934;52.690;6.184;2022-10-31T15:40:19;14.50;99.90
53053;DHT22;38934;52.690;6.184;2022-10-31T15:42:48;14.40;99.90
53053;DHT22;38934;52.690;6.184;2022-10-31T15:45:22;14.40;99.90
53053;DHT22;38934;52.690;6.184;2022-10-31T15:47:53;14.30;99.90
53053;DHT22;38934;52.690;6.184;2022-10-31T15:50:20;14.50;99.90
53053;DHT22;38934;52.690;6.184;2022-10-31T15:52:47;14.20;99.90
53053;DHT22;38934;52.690;6.184;2022-10-31T15:55:18;14.20;99.90
53053;DHT22;38934;52.690;6.184;2022-10-31T15:57:49;14.20;99.90
53053;DHT22;38934;52.690;6.184;2022-10-31T16:00:29;14.20;99.90
53053;DHT22;38934;52.690;6.184;2022-10-31T16:06:18;14.10;99.90
53053;DHT22;38934;52.690;6.184;2022-10-31T16:10:57;14.10;99.90
53053;DHT22;38934;52.690;6.184;2022-10-31T16:13:26;14.00;99.90
53053;DHT22;38934;52.690;6.184;2022-10-31T16:15:56;14.00;99.90
53053;DHT22;38934;52.690;6.184;2022-10-31T16:18:25;14.00;99.90
53053;DHT22;38934;52.690;6.184;2022-10-31T16:20:52;14.10;99.90
53053;DHT22;38934;52.690;6.184;2022-10-31T16:23:19;14.00;99.90
53053;DHT22;38934;52.690;6.184;2022-10-31T16:25:45;14.00;99.90
53053;DHT22;38934;52.690;6.184;2022-10-31T16:30:43;14.00;99.90
53053;DHT22;38934;52.690;6.184;2022-10-31T16:35:50;14.00;99.90
53053;DHT22;38934;52.690;6.184;2022-10-31T16:38:16;13.90;99.90
53053;DHT22;38934;52.690;6.184;2022-10-31T16:40:41;13.90;99.90
53053;DHT22;38934;52.690;6.184;2022-10-31T16:43:11;14.00;99.90
53053;DHT22;38934;52.690;6.184;2022-10-31T16:45:37;13.90;99.90
53053;DHT22;38934;52.690;6.184;2022-10-31T16:48:11;13.90;99.90
53053;DHT22;38934;52.690;6.184;2022-10-31T16:50:37;13.90;99.90
53053;DHT22;38934;52.690;6.184;2022-10-31T16:53:03;13.90;99.90
53053;DHT22;38934;52.690;6.184;2022-10-31T16:55:28;13.90;99.90
53053;DHT22;38934;52.690;6.184;2022-10-31T16:57:55;13.90;99.90
53053;DHT22;38934;52.690;6.184;2022-10-31T17:00:22;13.90;99.90
53053;DHT22;38934;52.690;6.184;2022-10-31T17:02:48;13.90;99.90
53053;DHT22;38934;52.690;6.184;2022-10-31T17:05:16;13.90;99.90
53053;DHT22;38934;52.690;6.184;2022-10-31T17:07:42;13.90;99.90
53053;DHT22;38934;52.690;6.184;2022-10-31T17:10:07;13.90;99.90
53053;DHT22;38934;52.690;6.184;2022-10-31T17:12:33;13.90;99.90
53053;DHT22;38934;52.690;6.184;2022-10-31T17:14:59;13.90;99.90
53053;DHT22;38934;52.690;6.184;2022-10-31T17:17:25;14.10;99.90
53053;DHT22;38934;52.690;6.184;2022-10-31T17:19:51;13.90;99.90
53053;DHT22;38934;52.690;6.184;2022-10-31T17:22:16;14.60;99.90
53053;DHT22;38934;52.690;6.184;2022-10-31T17:24:42;13.90;99.90